Time;durP1;ratioP1;P1;durP2;ratioP2;P2;SDS_P1;SDS_P2;PMS_P1;PMS_P2;Temp;Humidity;BMP_temperature;BMP_pressure;BME280_temperature;BME280_humidity;BME280_pressure;Samples;Min_cycle;Max_cycle;Signal;HPM_P1;HPM_P2
2023/05/21 00:00:59;;;;;;;0.10;0.10;;;15.90;99.90;;;;;;5034900;28;20032;-89
2023/05/21 00:03:26;;;;;;;0.10;0.10;;;16.00;99.90;;;;;;5034270;28;20421;-88
2023/05/21 00:05:53;;;;;;;0.10;0.10;;;15.90;99.90;;;;;;5034452;28;20044;-89
2023/05/21 00:08:19;;;;;;;0.00;0.00;;;16.00;99.90;;;;;;5034474;28;20112;-89
2023/05/21 00:10:45;;;;;;;0.10;0.10;;;15.90;99.90;;;;;;5034002;28;20176;-89
2023/05/21 00:13:11;;;;;;;0.05;0.05;;;15.90;99.90;;;;;;5033898;28;20029;-89
2023/05/21 00:15:37;;;;;;;0.10;0.10;;;16.00;99.90;;;;;;5034091;28;20068;-89
2023/05/21 00:18:02;;;;;;;0.15;0.10;;;15.90;99.90;;;;;;5034186;28;20038;-89
2023/05/21 00:20:31;;;;;;;0.47;0.20;;;15.90;99.90;;;;;;5034450;28;20108;-89
2023/05/21 00:22:57;;;;;;;0.25;0.20;;;15.90;99.90;;;;;;5034087;28;20049;-88
2023/05/21 00:25:22;;;;;;;0.20;0.20;;;15.90;99.90;;;;;;5015836;28;20128;-89
2023/05/21 00:27:48;;;;;;;0.10;0.10;;;15.90;99.90;;;;;;5033956;28;20517;-89
2023/05/21 00:30:15;;;;;;;0.10;0.10;;;15.90;99.90;;;;;;5034017;28;20485;-89
2023/05/21 00:32:40;;;;;;;0.10;0.10;;;15.80;99.90;;;;;;5033837;28;20029;-89
2023/05/21 00:35:07;;;;;;;0.10;0.10;;;15.80;99.90;;;;;;5033711;28;20443;-89
2023/05/21 00:37:33;;;;;;;2.03;0.57;;;15.70;99.90;;;;;;5033804;28;20367;-89
2023/05/21 00:40:04;;;;;;;0.20;0.20;;;15.70;99.90;;;;;;5033337;28;20076;-89
2023/05/21 00:42:30;;;;;;;0.05;0.05;;;15.70;99.90;;;;;;5033948;28;20029;-89
2023/05/21 00:44:56;;;;;;;0.43;0.30;;;15.70;99.90;;;;;;5034254;28;20083;-89
2023/05/21 00:47:22;;;;;;;0.17;0.17;;;15.60;99.90;;;;;;5015681;28;20031;-89
2023/05/21 00:49:50;;;;;;;0.13;0.13;;;15.60;99.90;;;;;;5033541;28;20397;-89
2023/05/21 00:52:19;;;;;;;0.00;0.00;;;15.50;99.90;;;;;;5033492;28;20529;-89
2023/05/21 00:54:47;;;;;;;0.20;0.20;;;15.40;99.90;;;;;;5032889;28;20566;-89
2023/05/21 00:57:13;;;;;;;0.03;0.03;;;15.40;99.90;;;;;;5034568;28;20060;-89
2023/05/21 00:59:39;;;;;;;0.10;0.10;;;15.30;99.90;;;;;;5033410;28;20053;-89
2023/05/21 01:02:05;;;;;;;0.17;0.17;;;15.30;99.90;;;;;;5033031;28;20045;-89
2023/05/21 01:04:31;;;;;;;0.10;0.10;;;15.30;99.90;;;;;;5033992;28;20539;-89
2023/05/21 01:06:57;;;;;;;0.00;0.00;;;15.20;99.90;;;;;;5033156;28;20041;-89
2023/05/21 01:09:25;;;;;;;0.10;0.10;;;15.10;99.90;;;;;;5032945;28;20029;-89
2023/05/21 01:11:51;;;;;;;0.10;0.10;;;15.00;99.90;;;;;;5032993;28;20052;-89
2023/05/21 01:14:18;;;;;;;0.20;0.20;;;15.00;99.90;;;;;;5033042;28;20049;-89
2023/05/21 01:16:47;;;;;;;0.20;0.20;;;15.00;99.90;;;;;;5033028;28;20026;-89
2023/05/21 01:19:23;;;;;;;0.10;0.10;;;14.90;99.90;;;;;;5032890;28;20044;-89
2023/05/21 01:21:55;;;;;;;0.00;0.00;;;14.90;99.90;;;;;;5032504;28;20056;-89
2023/05/21 01:24:21;;;;;;;0.00;0.00;;;14.90;99.90;;;;;;5032838;28;20474;-89
2023/05/21 01:26:47;;;;;;;0.10;0.10;;;14.90;99.90;;;;;;5032778;28;20105;-89
2023/05/21 01:29:13;;;;;;;0.10;0.10;;;14.80;99.90;;;;;;5032791;28;20045;-89
2023/05/21 01:32:08;;;;;;;0.28;0.20;;;14.70;99.90;;;;;;5032871;28;20032;-89
2023/05/21 01:34:57;;;;;;;0.20;0.20;;;14.80;99.90;;;;;;5014634;28;20484;-89
2023/05/21 01:37:49;;;;;;;0.68;0.30;;;14.70;99.90;;;;;;5032477;28;20021;-89
2023/05/21 01:40:29;;;;;;;0.10;0.10;;;14.70;99.90;;;;;;5015548;28;20564;-89
2023/05/21 01:42:57;;;;;;;0.10;0.10;;;14.60;99.90;;;;;;5032387;28;20371;-89
2023/05/21 01:45:24;;;;;;;0.63;0.43;;;14.60;99.90;;;;;;5032493;28;20506;-88
2023/05/21 01:47:52;;;;;;;0.17;0.17;;;14.70;99.90;;;;;;5032366;28;20029;-89
2023/05/21 01:50:18;;;;;;;0.03;0.03;;;14.70;99.90;;;;;;5032486;28;20029;-89
2023/05/21 01:52:59;;;;;;;0.10;0.10;;;14.60;99.90;;;;;;5032362;28;20398;-89
2023/05/21 01:55:26;;;;;;;1.27;0.43;;;14.60;99.90;;;;;;5033198;28;20045;-89
2023/05/21 01:57:54;;;;;;;0.10;0.10;;;14.60;99.90;;;;;;5032263;28;20068;-88
2023/05/21 02:00:21;;;;;;;0.10;0.10;;;14.50;99.90;;;;;;5032412;28;20025;-89
2023/05/21 02:02:46;;;;;;;0.10;0.10;;;14.50;99.90;;;;;;5032009;28;20119;-89
2023/05/21 02:05:12;;;;;;;0.40;0.40;;;14.40;99.90;;;;;;5032171;28;20025;-88
2023/05/21 02:07:39;;;;;;;0.17;0.17;;;14.40;99.90;;;;;;5032346;28;20062;-89
2023/05/21 02:10:05;;;;;;;0.10;0.10;;;14.40;99.90;;;;;;5032205;28;20083;-89
2023/05/21 02:12:31;;;;;;;0.57;0.32;;;14.40;99.90;;;;;;5032147;28;20109;-88
2023/05/21 02:14:56;;;;;;;0.22;0.22;;;14.40;99.90;;;;;;5032048;28;20112;-89
2023/05/21 02:17:23;;;;;;;0.10;0.10;;;14.50;99.90;;;;;;5032270;28;20030;-89
2023/05/21 02:19:49;;;;;;;0.08;0.08;;;14.40;99.90;;;;;;5032210;28;20033;-89
2023/05/21 02:22:15;;;;;;;0.17;0.17;;;14.30;99.90;;;;;;5032019;28;20493;-89
2023/05/21 02:24:41;;;;;;;0.43;0.43;;;14.30;99.90;;;;;;5032153;28;20029;-88
2023/05/21 02:27:09;;;;;;;0.25;0.25;;;14.30;99.90;;;;;;5031944;28;20025;-89
2023/05/21 02:29:35;;;;;;;0.52;0.20;;;14.40;99.90;;;;;;5031945;28;20029;-89
2023/05/21 02:32:01;;;;;;;0.20;0.13;;;14.40;99.90;;;;;;5032090;28;20029;-89
2023/05/21 02:34:29;;;;;;;0.10;0.10;;;14.30;99.90;;;;;;5034291;28;20033;-90
2023/05/21 02:36:55;;;;;;;0.15;0.15;;;14.40;99.90;;;;;;5035816;28;20036;-89
2023/05/21 02:39:21;;;;;;;0.00;0.00;;;14.40;99.90;;;;;;5035916;28;20033;-89
2023/05/21 02:41:46;;;;;;;0.15;0.15;;;14.40;99.90;;;;;;5018282;28;20026;-89
2023/05/21 02:44:13;;;;;;;1.08;0.20;;;14.40;99.90;;;;;;5035682;28;20091;-89
2023/05/21 02:46:38;;;;;;;0.73;0.40;;;14.40;99.90;;;;;;5036045;28;20034;-89
2023/05/21 02:49:04;;;;;;;0.85;0.40;;;14.30;99.90;;;;;;5035716;28;20031;-89
2023/05/21 02:51:30;;;;;;;0.20;0.10;;;14.30;99.90;;;;;;5035471;28;20083;-88
2023/05/21 02:53:56;;;;;;;1.25;0.20;;;14.20;99.90;;;;;;5035927;28;20021;-88
2023/05/21 02:56:22;;;;;;;0.38;0.30;;;14.10;99.90;;;;;;5035740;28;20034;-88
2023/05/21 02:58:47;;;;;;;0.40;0.40;;;14.00;99.90;;;;;;5036529;28;20022;-89
2023/05/21 03:01:13;;;;;;;0.10;0.10;;;14.00;99.90;;;;;;5036163;28;20038;-93
2023/05/21 03:03:39;;;;;;;0.03;0.03;;;14.00;99.90;;;;;;5018715;28;20385;-93
2023/05/21 03:06:05;;;;;;;0.28;0.28;;;14.00;99.90;;;;;;5018734;28;20022;-94
2023/05/21 03:08:31;;;;;;;0.55;0.55;;;14.10;99.90;;;;;;5036211;28;20045;-93
2023/05/21 03:10:56;;;;;;;0.22;0.22;;;14.20;99.90;;;;;;5036802;28;20025;-93
2023/05/21 03:13:22;;;;;;;0.20;0.20;;;14.20;99.90;;;;;;5018552;28;20505;-93
2023/05/21 03:15:48;;;;;;;0.10;0.10;;;14.20;99.90;;;;;;5036402;28;20045;-93
2023/05/21 03:18:13;;;;;;;0.10;0.10;;;14.30;99.90;;;;;;5036051;28;20022;-93
2023/05/21 03:20:42;;;;;;;1.38;0.20;;;14.30;99.90;;;;;;5018209;28;20367;-93
2023/05/21 03:23:08;;;;;;;0.17;0.17;;;14.30;99.90;;;;;;5036771;28;20025;-92
2023/05/21 03:25:35;;;;;;;0.00;0.00;;;14.30;99.90;;;;;;5018683;28;20018;-93
2023/05/21 03:28:01;;;;;;;0.30;0.30;;;14.30;99.90;;;;;;5018597;28;20026;-93
2023/05/21 03:30:27;;;;;;;0.30;0.30;;;14.30;99.90;;;;;;5036109;28;20036;-93
2023/05/21 03:32:52;;;;;;;0.08;0.08;;;14.30;99.90;;;;;;5035914;28;20485;-93
2023/05/21 03:35:18;;;;;;;0.65;0.65;;;14.20;99.90;;;;;;5035532;28;20047;-92
2023/05/21 03:37:45;;;;;;;0.40;0.20;;;14.20;99.90;;;;;;5018052;28;20028;-92
2023/05/21 03:40:11;;;;;;;0.30;0.30;;;14.30;99.90;;;;;;5036152;28;20021;-92
2023/05/21 03:42:37;;;;;;;0.20;0.20;;;14.20;99.90;;;;;;5035628;28;20434;-92
2023/05/21 03:45:03;;;;;;;0.30;0.30;;;14.20;99.90;;;;;;5034846;28;20120;-93
2023/05/21 03:47:28;;;;;;;0.10;0.10;;;14.20;99.90;;;;;;5035530;28;20036;-92
2023/05/21 03:49:54;;;;;;;0.22;0.22;;;14.30;99.90;;;;;;5017892;28;20029;-93
2023/05/21 03:52:20;;;;;;;0.15;0.15;;;14.30;99.90;;;;;;5035915;28;20082;-93
2023/05/21 03:54:45;;;;;;;0.10;0.10;;;14.20;99.90;;;;;;5035463;28;20073;-92
2023/05/21 03:57:11;;;;;;;0.10;0.10;;;14.20;99.90;;;;;;5035452;28;20018;-93
2023/05/21 03:59:36;;;;;;;0.40;0.40;;;14.30;99.90;;;;;;5035493;28;20034;-93
2023/05/21 04:02:02;;;;;;;0.10;0.10;;;14.30;99.90;;;;;;5017618;28;20139;-93
2023/05/21 04:04:28;;;;;;;0.10;0.10;;;14.30;99.90;;;;;;5019292;28;20604;-93
2023/05/21 04:06:54;;;;;;;0.22;0.22;;;14.30;99.90;;;;;;5017767;28;20142;-92
2023/05/21 04:09:20;;;;;;;0.10;0.10;;;14.20;99.90;;;;;;5035169;28;20119;-93
2023/05/21 04:11:46;;;;;;;0.20;0.20;;;14.10;99.90;;;;;;5017899;28;20044;-93
2023/05/21 04:14:12;;;;;;;0.22;0.22;;;14.20;99.90;;;;;;5035679;28;20037;-93
2023/05/21 04:16:38;;;;;;;0.10;0.10;;;14.20;99.90;;;;;;5034980;28;20026;-92
2023/05/21 04:19:05;;;;;;;0.20;0.20;;;14.20;99.90;;;;;;5017224;28;20032;-93
2023/05/21 04:21:31;;;;;;;0.28;0.28;;;14.40;99.90;;;;;;5035094;28;20029;-93
2023/05/21 04:23:57;;;;;;;0.20;0.20;;;14.20;99.90;;;;;;5035297;28;20018;-93
2023/05/21 04:26:24;;;;;;;0.13;0.13;;;14.30;99.90;;;;;;5017509;28;20031;-93
2023/05/21 04:28:49;;;;;;;0.10;0.10;;;14.20;99.90;;;;;;5034942;28;20033;-93
2023/05/21 04:31:15;;;;;;;0.10;0.10;;;14.30;99.90;;;;;;5016977;28;20109;-93
2023/05/21 04:33:44;;;;;;;0.30;0.30;;;14.40;99.90;;;;;;5034627;28;20036;-93
2023/05/21 04:36:16;;;;;;;0.10;0.10;;;14.40;99.90;;;;;;5034913;28;20041;-93
2023/05/21 04:38:41;;;;;;;0.38;0.10;;;14.40;99.90;;;;;;5034672;28;20501;-92
2023/05/21 04:41:09;;;;;;;0.40;0.40;;;14.40;99.90;;;;;;5034593;28;20075;-93
2023/05/21 04:43:35;;;;;;;0.22;0.22;;;14.40;99.90;;;;;;5034819;28;20021;-93
2023/05/21 04:46:01;;;;;;;0.38;0.20;;;14.30;99.90;;;;;;5034032;28;20033;-93
2023/05/21 04:48:27;;;;;;;0.75;0.68;;;14.20;99.90;;;;;;5016775;28;20041;-93
2023/05/21 04:50:54;;;;;;;0.50;0.50;;;14.20;99.90;;;;;;5034356;28;20025;-93
2023/05/21 04:53:21;;;;;;;0.95;0.57;;;14.10;99.90;;;;;;5034706;28;20030;-93
2023/05/21 04:55:47;;;;;;;2.25;0.40;;;14.10;99.90;;;;;;5035586;28;20393;-93
2023/05/21 04:58:13;;;;;;;0.35;0.35;;;14.10;99.90;;;;;;5015956;28;20013;-93
2023/05/21 05:00:40;;;;;;;0.22;0.22;;;14.10;99.90;;;;;;5016345;28;20128;-93
2023/05/21 05:03:06;;;;;;;0.20;0.20;;;14.00;99.90;;;;;;5034014;28;20080;-93
2023/05/21 05:05:32;;;;;;;0.60;0.60;;;14.00;99.90;;;;;;5017227;28;20065;-93
2023/05/21 05:07:57;;;;;;;0.90;0.52;;;14.10;99.90;;;;;;5034543;28;20022;-93
2023/05/21 05:10:23;;;;;;;0.52;0.50;;;14.20;99.90;;;;;;5035039;28;20025;-93
2023/05/21 05:12:49;;;;;;;0.13;0.13;;;14.30;99.90;;;;;;5034066;28;20057;-93
2023/05/21 05:15:14;;;;;;;0.75;0.68;;;14.40;99.90;;;;;;5016001;28;20037;-92
2023/05/21 05:17:40;;;;;;;0.10;0.10;;;14.40;99.90;;;;;;5034301;28;20386;-92
2023/05/21 05:20:07;;;;;;;0.30;0.25;;;14.40;99.90;;;;;;5033899;28;20430;-93
2023/05/21 05:22:32;;;;;;;0.40;0.25;;;14.30;99.90;;;;;;5034068;28;20026;-93
2023/05/21 05:24:58;;;;;;;0.35;0.35;;;14.30;99.90;;;;;;5016831;28;20026;-92
2023/05/21 05:27:24;;;;;;;0.50;0.50;;;14.40;99.90;;;;;;5016529;28;20025;-93
2023/05/21 05:29:50;;;;;;;0.55;0.40;;;14.40;99.90;;;;;;5033364;28;20500;-93
2023/05/21 05:32:15;;;;;;;0.20;0.20;;;14.50;99.90;;;;;;5034075;28;20022;-93
2023/05/21 05:34:41;;;;;;;0.38;0.25;;;14.50;99.90;;;;;;5016038;28;20036;-93
2023/05/21 05:37:07;;;;;;;0.05;0.05;;;14.50;99.90;;;;;;5016358;28;20021;-93
2023/05/21 05:39:33;;;;;;;0.52;0.52;;;14.60;99.90;;;;;;5016469;28;20028;-94
2023/05/21 05:41:58;;;;;;;0.30;0.30;;;14.50;99.90;;;;;;5015852;28;20079;-93
2023/05/21 05:44:24;;;;;;;0.20;0.20;;;14.50;99.90;;;;;;5015169;28;20025;-92
2023/05/21 05:46:50;;;;;;;0.32;0.32;;;14.60;99.90;;;;;;5033598;28;20026;-93
2023/05/21 05:49:15;;;;;;;2.42;0.40;;;14.60;99.90;;;;;;5015816;28;20029;-93
2023/05/21 05:51:41;;;;;;;0.52;0.52;;;14.60;99.90;;;;;;5033405;28;20029;-94
2023/05/21 05:54:07;;;;;;;0.65;0.52;;;14.60;99.90;;;;;;5015691;28;20041;-93
2023/05/21 05:56:32;;;;;;;0.82;0.68;;;14.60;99.90;;;;;;5033295;28;20053;-93
2023/05/21 05:58:58;;;;;;;0.70;0.70;;;14.60;99.90;;;;;;5033559;28;20458;-93
2023/05/21 06:01:25;;;;;;;0.60;0.50;;;14.70;99.90;;;;;;5015794;28;20049;-93
2023/05/21 06:03:51;;;;;;;0.40;0.40;;;14.70;99.90;;;;;;5033964;28;20543;-93
2023/05/21 06:06:17;;;;;;;0.88;0.85;;;14.60;99.90;;;;;;5033284;28;20116;-93
2023/05/21 06:08:43;;;;;;;0.57;0.55;;;14.70;99.90;;;;;;5032998;28;20039;-93
2023/05/21 06:11:09;;;;;;;0.82;0.82;;;14.80;99.90;;;;;;5033091;28;20068;-93
2023/05/21 06:13:35;;;;;;;1.20;1.10;;;14.70;99.90;;;;;;5015126;28;20112;-93
2023/05/21 06:16:03;;;;;;;6.40;1.42;;;14.70;99.90;;;;;;5033123;28;20128;-92
2023/05/21 06:18:28;;;;;;;1.02;0.63;;;14.80;99.90;;;;;;5015274;28;20030;-93
2023/05/21 06:20:54;;;;;;;3.38;0.93;;;14.90;99.90;;;;;;5015900;28;20025;-93
2023/05/21 06:23:19;;;;;;;0.43;0.30;;;14.90;99.90;;;;;;5033080;28;20033;-93
2023/05/21 06:25:45;;;;;;;0.32;0.32;;;15.00;99.90;;;;;;5015501;28;20084;-93
2023/05/21 06:28:11;;;;;;;0.45;0.45;;;15.10;99.90;;;;;;5032652;28;20075;-92
2023/05/21 06:30:41;;;;;;;8.30;0.68;;;15.10;99.90;;;;;;5037443;28;20025;-96
2023/05/21 06:33:06;;;;;;;1.00;0.50;;;15.30;99.90;;;;;;5019331;28;20025;-96
2023/05/21 06:35:35;;;;;;;0.50;0.50;;;15.20;99.90;;;;;;5034133;28;20496;-95
2023/05/21 06:38:02;;;;;;;0.50;0.50;;;15.20;99.90;;;;;;5035040;28;20040;-96
2023/05/21 06:40:28;;;;;;;1.42;1.33;;;15.30;99.90;;;;;;5033576;28;20034;-96
2023/05/21 06:42:55;;;;;;;3.13;0.45;;;15.30;99.90;;;;;;5021145;28;20093;-96
2023/05/21 06:45:20;;;;;;;0.52;0.52;;;15.30;99.90;;;;;;5020638;28;20085;-95
2023/05/21 06:47:46;;;;;;;1.35;0.57;;;15.20;99.90;;;;;;5018802;28;20114;-96
2023/05/21 06:50:12;;;;;;;0.20;0.20;;;15.20;99.90;;;;;;5033773;28;20130;-95
2023/05/21 06:52:37;;;;;;;0.68;0.55;;;15.40;99.90;;;;;;5011999;28;20494;-86
2023/05/21 06:55:03;;;;;;;0.68;0.68;;;15.60;99.90;;;;;;5031635;28;20037;-84
2023/05/21 06:57:29;;;;;;;0.40;0.40;;;15.80;99.90;;;;;;5029761;28;20100;-85
2023/05/21 06:59:54;;;;;;;0.43;0.43;;;15.90;99.90;;;;;;5031284;28;20033;-87
2023/05/21 07:02:20;;;;;;;0.77;0.77;;;15.90;99.90;;;;;;5031342;28;20052;-87
2023/05/21 07:04:45;;;;;;;0.80;0.80;;;15.90;99.90;;;;;;5031355;28;20041;-87
2023/05/21 07:07:11;;;;;;;0.50;0.50;;;16.00;99.90;;;;;;5031457;28;20024;-86
2023/05/21 07:09:37;;;;;;;0.50;0.50;;;16.10;99.90;;;;;;5031365;28;20370;-86
2023/05/21 07:12:02;;;;;;;0.50;0.40;;;16.10;99.90;;;;;;5031432;28;20101;-85
2023/05/21 07:14:28;;;;;;;1.63;0.80;;;16.10;99.90;;;;;;5031842;28;20021;-86
2023/05/21 07:16:54;;;;;;;0.22;0.22;;;16.20;99.90;;;;;;5031957;28;20029;-87
2023/05/21 07:19:19;;;;;;;1.17;1.08;;;16.30;99.90;;;;;;5031864;28;20017;-87
2023/05/21 07:21:45;;;;;;;1.02;1.02;;;16.30;99.90;;;;;;5016405;28;20124;-88
2023/05/21 07:24:11;;;;;;;0.40;0.40;;;16.30;99.90;;;;;;5034978;28;20405;-87
2023/05/21 07:26:37;;;;;;;0.63;0.57;;;16.30;99.90;;;;;;5032966;28;20029;-87
2023/05/21 07:29:02;;;;;;;0.30;0.30;;;16.30;99.90;;;;;;5035846;28;20029;-85
2023/05/21 07:31:28;;;;;;;0.70;0.47;;;16.40;99.90;;;;;;5034867;28;20033;-87
2023/05/21 07:33:54;;;;;;;0.63;0.63;;;16.40;99.90;;;;;;5016726;28;20025;-87
2023/05/21 07:36:19;;;;;;;0.63;0.57;;;16.40;99.90;;;;;;5034537;28;20037;-86
2023/05/21 07:38:45;;;;;;;0.70;0.55;;;16.50;99.90;;;;;;5034973;28;20032;-90
2023/05/21 07:41:11;;;;;;;0.50;0.50;;;16.40;99.90;;;;;;5016712;28;20026;-88
2023/05/21 07:43:37;;;;;;;0.55;0.52;;;16.50;99.90;;;;;;5033722;28;20029;-91
2023/05/21 07:46:02;;;;;;;0.22;0.22;;;16.40;99.90;;;;;;5034289;28;20037;-87
2023/05/21 07:48:28;;;;;;;0.13;0.10;;;16.60;99.90;;;;;;5034865;28;20031;-85
2023/05/21 07:50:55;;;;;;;0.35;0.35;;;16.60;99.90;;;;;;5017003;28;20026;-88
2023/05/21 07:53:21;;;;;;;0.95;0.57;;;16.60;99.90;;;;;;5034803;28;20137;-88
2023/05/21 07:55:46;;;;;;;0.10;0.10;;;16.60;99.90;;;;;;5016129;28;20124;-89
2023/05/21 07:58:15;;;;;;;0.43;0.43;;;16.60;99.90;;;;;;5034847;28;20030;-88
2023/05/21 08:00:45;;;;;;;0.30;0.30;;;16.70;99.90;;;;;;5034491;28;20036;-86
2023/05/21 08:03:15;;;;;;;0.60;0.60;;;16.70;99.90;;;;;;5033978;28;20049;-86
2023/05/21 08:05:43;;;;;;;0.25;0.25;;;16.70;99.90;;;;;;5034478;28;20121;-88
2023/05/21 08:08:09;;;;;;;0.25;0.25;;;16.70;99.90;;;;;;5016211;28;20021;-88
2023/05/21 08:10:35;;;;;;;0.52;0.52;;;16.90;99.90;;;;;;5034299;28;20040;-90
2023/05/21 08:13:01;;;;;;;0.73;0.73;;;17.00;99.90;;;;;;5017358;28;20021;-89
2023/05/21 08:15:27;;;;;;;0.85;0.40;;;17.10;99.90;;;;;;5035104;28;20037;-91
2023/05/21 08:17:52;;;;;;;0.63;0.50;;;17.10;99.90;;;;;;5034433;28;20060;-93
2023/05/21 08:20:19;;;;;;;0.47;0.28;;;17.10;99.90;;;;;;5034658;28;20112;-90
2023/05/21 08:22:44;;;;;;;0.38;0.38;;;17.10;99.90;;;;;;5049846;28;20029;-88
2023/05/21 08:25:10;;;;;;;0.45;0.45;;;17.20;99.90;;;;;;5048631;28;20024;-86
2023/05/21 08:27:36;;;;;;;0.40;0.40;;;17.30;99.90;;;;;;5034122;28;20025;-85
2023/05/21 08:30:01;;;;;;;1.92;0.70;;;17.40;99.90;;;;;;5032924;28;20033;-86
2023/05/21 08:32:27;;;;;;;0.45;0.43;;;17.40;99.90;;;;;;5033181;28;20117;-86
2023/05/21 08:34:52;;;;;;;0.30;0.30;;;17.50;99.90;;;;;;5033075;28;20038;-85
2023/05/21 08:37:20;;;;;;;0.20;0.20;;;17.60;99.90;;;;;;5033316;28;20021;-85
2023/05/21 08:39:46;;;;;;;0.60;0.60;;;17.70;99.90;;;;;;5032919;28;20116;-86
2023/05/21 08:42:46;;;;;;;0.10;0.10;;;17.80;99.90;;;;;;5033260;28;20100;-89
2023/05/21 08:45:13;;;;;;;0.60;0.60;;;17.90;99.90;;;;;;5010875;28;20393;-87
2023/05/21 08:47:45;;;;;;;0.50;0.30;;;17.90;99.90;;;;;;5028932;28;20029;-86
2023/05/21 08:50:15;;;;;;;0.20;0.20;;;18.00;99.90;;;;;;5032791;28;20029;-86
2023/05/21 08:52:41;;;;;;;0.10;0.10;;;18.10;99.90;;;;;;5032267;28;20043;-84
2023/05/21 08:55:08;;;;;;;0.20;0.20;;;18.30;99.90;;;;;;5032813;28;20029;-82
2023/05/21 08:57:34;;;;;;;0.63;0.63;;;18.30;99.90;;;;;;5032731;28;20032;-84
2023/05/21 09:00:00;;;;;;;0.70;0.60;;;18.20;99.90;;;;;;5032732;28;20025;-91
2023/05/21 09:02:29;;;;;;;0.20;0.20;;;18.30;99.90;;;;;;5014022;28;20041;-84
2023/05/21 09:04:56;;;;;;;0.80;0.80;;;18.30;99.90;;;;;;5028405;28;20026;-85
2023/05/21 09:07:26;;;;;;;0.22;0.22;;;18.50;99.90;;;;;;5013790;28;20046;-85
2023/05/21 09:09:57;;;;;;;0.40;0.28;;;18.60;99.90;;;;;;5018894;28;20017;-84
2023/05/21 09:12:26;;;;;;;2.05;0.75;;;18.50;99.90;;;;;;5032471;28;20043;-83
2023/05/21 09:14:52;;;;;;;0.40;0.40;;;18.50;99.90;;;;;;5032457;28;20064;-83
2023/05/21 09:17:19;;;;;;;0.45;0.45;;;18.70;99.90;;;;;;5032345;28;20068;-83
2023/05/21 09:20:10;;;;;;;0.47;0.47;;;18.90;99.90;;;;;;5033314;28;20022;-94
2023/05/21 09:22:43;;;;;;;0.55;0.22;;;19.20;99.90;;;;;;5033813;28;20014;-92
2023/05/21 09:25:11;;;;;;;1.25;0.63;;;19.30;99.90;;;;;;5033223;28;20466;-91
2023/05/21 09:27:37;;;;;;;0.20;0.20;;;19.40;99.90;;;;;;5014532;28;20486;-88
2023/05/21 09:30:08;;;;;;;0.95;0.95;;;19.60;99.90;;;;;;5015123;28;20383;-91
2023/05/21 09:32:33;;;;;;;0.75;0.30;;;19.90;99.90;;;;;;5032463;28;20112;-93
2023/05/21 09:35:07;;;;;;;0.47;0.30;;;20.20;99.90;;;;;;5015542;28;20132;-90
2023/05/21 09:37:39;;;;;;;0.30;0.30;;;20.30;99.90;;;;;;5031466;28;20018;-89
2023/05/21 09:40:14;;;;;;;1.85;0.77;;;20.40;99.90;;;;;;5021831;28;20037;-92
2023/05/21 09:42:42;;;;;;;0.60;0.57;;;20.20;99.90;;;;;;5014430;28;20021;-88
2023/05/21 09:45:09;;;;;;;0.68;0.68;;;20.30;99.90;;;;;;5031727;28;20112;-87
2023/05/21 09:47:44;;;;;;;0.75;0.75;;;20.40;99.90;;;;;;5031287;28;20124;-84
2023/05/21 09:50:11;;;;;;;0.47;0.47;;;20.30;99.90;;;;;;5031543;28;20562;-86
2023/05/21 09:52:38;;;;;;;0.38;0.38;;;20.30;99.90;;;;;;5017070;28;20033;-86
2023/05/21 09:55:05;;;;;;;0.38;0.38;;;20.40;99.90;;;;;;5012774;28;20038;-87
2023/05/21 09:57:31;;;;;;;0.35;0.30;;;20.20;99.90;;;;;;5032334;28;20100;-88
2023/05/21 09:59:57;;;;;;;2.38;0.75;;;20.30;99.90;;;;;;5031907;28;20454;-88
2023/05/21 10:02:25;;;;;;;0.25;0.25;;;20.40;99.90;;;;;;5031689;28;20517;-87
2023/05/21 10:04:53;;;;;;;0.40;0.17;;;20.50;99.90;;;;;;5032394;28;20083;-89
2023/05/21 10:07:24;;;;;;;0.70;0.60;;;20.70;99.90;;;;;;5031628;28;20088;-89
2023/05/21 10:09:54;;;;;;;0.40;0.40;;;20.80;99.90;;;;;;5031739;28;20045;-87
2023/05/21 10:12:22;;;;;;;0.10;0.10;;;21.00;99.90;;;;;;5032156;28;20036;-91
2023/05/21 10:14:53;;;;;;;0.30;0.30;;;21.10;99.90;;;;;;5031294;28;20029;-87
2023/05/21 10:17:19;;;;;;;0.65;0.47;;;21.10;99.90;;;;;;5031394;28;20478;-88
2023/05/21 10:19:47;;;;;;;0.40;0.38;;;21.10;99.90;;;;;;5031032;28;20053;-88
2023/05/21 10:22:13;;;;;;;0.47;0.47;;;21.30;99.90;;;;;;5013955;28;20095;-88
2023/05/21 10:24:40;;;;;;;0.98;0.40;;;21.20;99.90;;;;;;5031122;28;20104;-88
2023/05/21 10:27:06;;;;;;;0.38;0.38;;;21.40;99.90;;;;;;5031036;28;20033;-88
2023/05/21 10:29:33;;;;;;;0.52;0.52;;;21.40;99.90;;;;;;5031511;28;20033;-87
2023/05/21 10:32:00;;;;;;;0.20;0.20;;;21.80;99.90;;;;;;5031173;28;20109;-87
2023/05/21 10:34:28;;;;;;;0.25;0.25;;;21.60;99.90;;;;;;5030663;28;20555;-87
2023/05/21 10:36:55;;;;;;;0.65;0.65;;;21.70;99.90;;;;;;5030343;28;20397;-87
2023/05/21 10:39:24;;;;;;;0.82;0.77;;;21.60;99.90;;;;;;5031439;28;20111;-89
2023/05/21 10:42:06;;;;;;;0.73;0.73;;;21.60;99.90;;;;;;5031768;28;20485;-89
2023/05/21 10:45:16;;;;;;;1.17;0.98;;;21.70;99.90;;;;;;5030859;28;20029;-86
2023/05/21 10:48:17;;;;;;;0.60;0.60;;;21.90;99.90;;;;;;5030558;28;20129;-90
2023/05/21 10:50:55;;;;;;;1.00;0.70;;;22.00;99.90;;;;;;5011575;28;20088;-88
2023/05/21 10:53:55;;;;;;;1.63;0.57;;;22.20;99.90;;;;;;5020241;28;20034;-88
2023/05/21 10:56:38;;;;;;;0.35;0.35;;;22.10;99.90;;;;;;5033289;28;20124;-86
2023/05/21 10:59:42;;;;;;;0.32;0.25;;;21.90;99.90;;;;;;5017225;28;20033;-90
2023/05/21 11:02:11;;;;;;;1.15;1.08;;;21.90;99.90;;;;;;5031327;28;20494;-90
2023/05/21 11:04:38;;;;;;;1.63;0.88;;;22.20;99.90;;;;;;5034700;28;20028;-92
2023/05/21 11:07:06;;;;;;;0.68;0.60;;;22.20;99.90;;;;;;5035552;28;20033;-94
2023/05/21 11:09:31;;;;;;;0.80;0.80;;;22.30;99.90;;;;;;5017384;28;20030;-92
2023/05/21 11:11:58;;;;;;;0.63;0.55;;;22.20;99.90;;;;;;5035271;28;20030;-89
2023/05/21 11:14:55;;;;;;;0.50;0.50;;;22.60;99.90;;;;;;5035142;28;20095;-89
2023/05/21 11:17:38;;;;;;;0.20;0.20;;;22.60;99.90;;;;;;5034565;28;20038;-87
2023/05/21 11:20:07;;;;;;;0.80;0.47;;;22.70;99.90;;;;;;5035324;28;20033;-90
2023/05/21 11:22:35;;;;;;;2.90;0.75;;;23.00;99.90;;;;;;5037768;28;20030;-92
2023/05/21 11:25:01;;;;;;;0.45;0.45;;;22.90;99.90;;;;;;5035242;28;20037;-94
2023/05/21 11:32:58;;;;;;;0.60;0.60;;;22.60;99.90;;;;;;5622180;23;20058;-95
2023/05/21 11:35:25;;;;;;;0.52;0.47;;;22.40;99.90;;;;;;5013969;28;20421;-87
2023/05/21 11:37:53;;;;;;;0.45;0.45;;;22.40;99.90;;;;;;5016780;28;20033;-96
2023/05/21 11:40:24;;;;;;;0.30;0.30;;;22.60;99.90;;;;;;5015212;28;20133;-87
2023/05/21 11:42:54;;;;;;;0.88;0.60;;;22.60;99.90;;;;;;5015253;28;20025;-87
2023/05/21 11:45:27;;;;;;;0.30;0.30;;;22.60;99.90;;;;;;5015267;28;20030;-87
2023/05/21 11:47:54;;;;;;;0.63;0.50;;;22.60;99.90;;;;;;5014606;28;20028;-87
2023/05/21 11:50:20;;;;;;;0.28;0.28;;;22.70;99.90;;;;;;5015013;28;20026;-87
2023/05/21 11:52:47;;;;;;;0.40;0.40;;;22.50;99.90;;;;;;5014969;28;20033;-88
2023/05/21 11:55:14;;;;;;;0.38;0.38;;;22.40;99.90;;;;;;5013584;28;20026;-87
2023/05/21 11:57:41;;;;;;;0.57;0.57;;;22.10;99.90;;;;;;5013719;28;20057;-88
2023/05/21 12:00:15;;;;;;;0.20;0.20;;;22.20;99.90;;;;;;5015169;28;20425;-88
2023/05/21 12:02:50;;;;;;;0.15;0.15;;;22.30;99.90;;;;;;5014388;28;20516;-88
2023/05/21 12:05:16;;;;;;;0.52;0.52;;;22.50;99.90;;;;;;5014682;28;20080;-87
2023/05/21 12:07:41;;;;;;;0.30;0.30;;;22.40;99.90;;;;;;5014627;28;20018;-87
2023/05/21 12:10:07;;;;;;;0.88;0.32;;;22.60;99.90;;;;;;5014578;28;20033;-87
2023/05/21 12:12:33;;;;;;;0.32;0.28;;;22.40;99.90;;;;;;5013987;28;20013;-88
2023/05/21 12:15:01;;;;;;;0.50;0.50;;;22.30;99.90;;;;;;5014504;28;20026;-87
2023/05/21 12:17:27;;;;;;;0.93;0.93;;;22.30;99.90;;;;;;5014149;28;20436;-88
2023/05/21 12:19:56;;;;;;;0.82;0.47;;;22.40;99.90;;;;;;5014606;28;20030;-88
2023/05/21 12:22:26;;;;;;;0.47;0.47;;;22.50;99.90;;;;;;5014854;28;20021;-87
2023/05/21 12:24:53;;;;;;;0.30;0.30;;;22.30;99.90;;;;;;5014411;28;20064;-88
2023/05/21 12:27:20;;;;;;;0.38;0.38;;;22.30;99.90;;;;;;5014299;28;20049;-88
2023/05/21 12:29:50;;;;;;;0.38;0.38;;;22.50;99.90;;;;;;5014156;28;20026;-87
2023/05/21 12:32:16;;;;;;;0.50;0.50;;;23.00;99.90;;;;;;5014080;28;20050;-88
2023/05/21 12:34:53;;;;;;;0.52;0.52;;;23.70;99.90;;;;;;5013995;28;20046;-88
2023/05/21 12:37:31;;;;;;;1.25;0.52;;;23.50;99.90;;;;;;5029432;28;20520;-88
2023/05/21 12:40:03;;;;;;;2.40;1.00;;;23.60;99.90;;;;;;5013998;28;20049;-87
2023/05/21 12:42:33;;;;;;;0.75;0.65;;;23.80;99.90;;;;;;5013965;28;20448;-87
2023/05/21 12:45:00;;;;;;;1.45;0.52;;;24.00;99.90;;;;;;5013639;28;20038;-88
2023/05/21 12:47:27;;;;;;;0.55;0.55;;;23.50;99.90;;;;;;5014199;28;20018;-88
2023/05/21 12:50:03;;;;;;;0.40;0.32;;;23.60;99.90;;;;;;5014665;28;20076;-87
2023/05/21 12:52:32;;;;;;;0.28;0.28;;;23.50;99.90;;;;;;5012408;28;20516;-87
2023/05/21 12:54:58;;;;;;;0.38;0.35;;;23.70;99.90;;;;;;5013931;28;20171;-88
2023/05/21 12:57:27;;;;;;;0.30;0.30;;;23.90;99.90;;;;;;5013646;28;20085;-88